sensor_id;sensor_type;location;lat;lon;timestamp;pressure;altitude;pressure_sealevel;temperature;humidity
15568;BME280;7885;42.596;23.044;2023-02-08T00:00:17;94344.34;;;-3.09;71.37
15568;BME280;7885;42.596;23.044;2023-02-08T00:02:43;94313.56;;;-3.30;72.17
15568;BME280;7885;42.596;23.044;2023-02-08T00:05:10;94346.75;;;-3.08;72.69
15568;BME280;7885;42.596;23.044;2023-02-08T00:07:37;94351.03;;;-3.12;72.49
15568;BME280;7885;42.596;23.044;2023-02-08T00:10:06;94319.38;;;-3.23;71.55
15568;BME280;7885;42.596;23.044;2023-02-08T00:12:35;94346.50;;;-3.11;72.06
15568;BME280;7885;42.596;23.044;2023-02-08T00:15:02;94333.75;;;-3.19;72.75
15568;BME280;7885;42.596;23.044;2023-02-08T00:17:30;94341.19;;;-3.16;73.02
15568;BME280;7885;42.596;23.044;2023-02-08T00:19:57;94359.22;;;-3.03;72.53
15568;BME280;7885;42.596;23.044;2023-02-08T00:22:23;94336.91;;;-3.17;72.39
15568;BME280;7885;42.596;23.044;2023-02-08T00:24:51;94356.03;;;-3.05;73.05
15568;BME280;7885;42.596;23.044;2023-02-08T00:27:19;94343.78;;;-3.06;73.47
15568;BME280;7885;42.596;23.044;2023-02-08T00:29:46;94362.91;;;-2.94;73.31
15568;BME280;7885;42.596;23.044;2023-02-08T00:32:13;94357.59;;;-2.99;72.63
15568;BME280;7885;42.596;23.044;2023-02-08T00:34:40;94344.59;;;-3.06;73.14
15568;BME280;7885;42.596;23.044;2023-02-08T00:37:07;94366.09;;;-2.92;72.89
15568;BME280;7885;42.596;23.044;2023-02-08T00:39:34;94370.31;;;-2.86;71.98
15568;BME280;7885;42.596;23.044;2023-02-08T00:42:00;94363.16;;;-2.95;71.81
15568;BME280;7885;42.596;23.044;2023-02-08T00:44:29;94378.09;;;-2.94;72.47
15568;BME280;7885;42.596;23.044;2023-02-08T00:46:56;94371.44;;;-2.97;71.86
15568;BME280;7885;42.596;23.044;2023-02-08T00:49:23;94363.53;;;-3.17;70.64
15568;BME280;7885;42.596;23.044;2023-02-08T00:51:49;94390.41;;;-3.03;70.73
15568;BME280;7885;42.596;23.044;2023-02-08T00:54:18;94398.13;;;-3.07;70.47
15568;BME280;7885;42.596;23.044;2023-02-08T00:56:45;94378.44;;;-3.11;72.09
15568;BME280;7885;42.596;23.044;2023-02-08T00:59:12;94396.75;;;-2.99;73.45
15568;BME280;7885;42.596;23.044;2023-02-08T01:01:41;94390.66;;;-3.00;73.86
15568;BME280;7885;42.596;23.044;2023-02-08T01:04:08;94369.91;;;-3.08;73.77
15568;BME280;7885;42.596;23.044;2023-02-08T01:06:35;94397.53;;;-2.94;73.42
15568;BME280;7885;42.596;23.044;2023-02-08T01:09:02;94368.34;;;-3.14;72.16
15568;BME280;7885;42.596;23.044;2023-02-08T01:11:29;94403.97;;;-3.00;71.13
15568;BME280;7885;42.596;23.044;2023-02-08T01:13:56;94376.38;;;-3.29;71.30
15568;BME280;7885;42.596;23.044;2023-02-08T01:16:27;94397.38;;;-3.23;71.25
15568;BME280;7885;42.596;23.044;2023-02-08T01:18:57;94398.53;;;-3.39;71.88
15568;BME280;7885;42.596;23.044;2023-02-08T01:21:26;94401.94;;;-3.33;73.14
15568;BME280;7885;42.596;23.044;2023-02-08T01:23:53;94394.97;;;-3.19;73.81
15568;BME280;7885;42.596;23.044;2023-02-08T01:26:21;94397.63;;;-3.14;73.56
15568;BME280;7885;42.596;23.044;2023-02-08T01:28:51;94390.66;;;-3.10;72.93
15568;BME280;7885;42.596;23.044;2023-02-08T01:31:21;94393.31;;;-3.05;72.04
15568;BME280;7885;42.596;23.044;2023-02-08T01:33:48;94370.97;;;-3.09;70.46
15568;BME280;7885;42.596;23.044;2023-02-08T01:36:16;94375.75;;;-3.06;69.94
15568;BME280;7885;42.596;23.044;2023-02-08T01:38:44;94374.69;;;-3.05;70.05
15568;BME280;7885;42.596;23.044;2023-02-08T01:41:14;94385.53;;;-2.96;69.37
15568;BME280;7885;42.596;23.044;2023-02-08T01:44:02;94377.84;;;-3.03;70.25
15568;BME280;7885;42.596;23.044;2023-02-08T01:46:30;94380.25;;;-3.07;70.18
15568;BME280;7885;42.596;23.044;2023-02-08T01:49:00;94390.66;;;-3.05;71.03
15568;BME280;7885;42.596;23.044;2023-02-08T01:51:31;94382.16;;;-3.12;71.39
15568;BME280;7885;42.596;23.044;2023-02-08T01:54:00;94388.03;;;-3.15;70.96
15568;BME280;7885;42.596;23.044;2023-02-08T01:56:30;94366.28;;;-3.32;71.29
15568;BME280;7885;42.596;23.044;2023-02-08T01:59:01;94376.13;;;-3.28;71.67
15568;BME280;7885;42.596;23.044;2023-02-08T02:01:29;94392.88;;;-3.22;71.63
15568;BME280;7885;42.596;23.044;2023-02-08T02:03:59;94408.53;;;-3.16;71.37
15568;BME280;7885;42.596;23.044;2023-02-08T02:06:31;94390.25;;;-3.32;69.66
15568;BME280;7885;42.596;23.044;2023-02-08T02:09:06;94401.94;;;-3.33;69.36
15568;BME280;7885;42.596;23.044;2023-02-08T02:11:36;94354.44;;;-3.70;69.56
15568;BME280;7885;42.596;23.044;2023-02-08T02:14:03;94404.94;;;-3.45;69.46
15568;BME280;7885;42.596;23.044;2023-02-08T02:16:30;94407.84;;;-3.51;69.75
15568;BME280;7885;42.596;23.044;2023-02-08T02:18:57;94414.81;;;-3.55;69.89
15568;BME280;7885;42.596;23.044;2023-02-08T02:21:43;94403.94;;;-3.69;69.85
15568;BME280;7885;42.596;23.044;2023-02-08T02:24:41;94344.72;;;-4.40;69.15
15568;BME280;7885;42.596;23.044;2023-02-08T02:27:30;94402.13;;;-4.39;70.93
15568;BME280;7885;42.596;23.044;2023-02-08T02:33:16;94417.53;;;-4.46;72.82
15568;BME280;7885;42.596;23.044;2023-02-08T02:35:50;94421.25;;;-4.57;72.61
15568;BME280;7885;42.596;23.044;2023-02-08T02:38:28;94414.31;;;-4.74;72.86
15568;BME280;7885;42.596;23.044;2023-02-08T02:41:06;94415.38;;;-4.80;72.66
15568;BME280;7885;42.596;23.044;2023-02-08T02:43:41;94424.09;;;-4.94;73.67
15568;BME280;7885;42.596;23.044;2023-02-08T02:46:21;94408.31;;;-5.26;74.29
15568;BME280;7885;42.596;23.044;2023-02-08T02:48:56;94427.94;;;-5.32;74.65
15568;BME280;7885;42.596;23.044;2023-02-08T02:51:27;94431.59;;;-5.43;74.25
15568;BME280;7885;42.596;23.044;2023-02-08T02:54:02;94441.66;;;-5.50;74.96
15568;BME280;7885;42.596;23.044;2023-02-08T02:56:36;94422.50;;;-5.63;75.50
15568;BME280;7885;42.596;23.044;2023-02-08T02:59:06;94420.66;;;-5.57;75.96
15568;BME280;7885;42.596;23.044;2023-02-08T03:01:34;94438.00;;;-5.39;76.02
15568;BME280;7885;42.596;23.044;2023-02-08T03:04:12;94427.94;;;-5.32;75.31
15568;BME280;7885;42.596;23.044;2023-02-08T03:06:47;94427.47;;;-5.19;74.14
15568;BME280;7885;42.596;23.044;2023-02-08T03:12:21;94413.91;;;-5.23;73.39
15568;BME280;7885;42.596;23.044;2023-02-08T03:14:57;94443.19;;;-4.92;74.38
15568;BME280;7885;42.596;23.044;2023-02-08T03:17:33;94446.16;;;-4.84;74.58
15568;BME280;7885;42.596;23.044;2023-02-08T03:20:07;94390.59;;;-5.05;74.97
15568;BME280;7885;42.596;23.044;2023-02-08T03:22:54;94420.13;;;-4.82;75.18
15568;BME280;7885;42.596;23.044;2023-02-08T03:25:29;94432.91;;;-4.69;75.62
15568;BME280;7885;42.596;23.044;2023-02-08T03:28:02;94447.03;;;-4.53;76.08
15568;BME280;7885;42.596;23.044;2023-02-08T03:30:34;94438.28;;;-4.38;76.90
15568;BME280;7885;42.596;23.044;2023-02-08T03:33:07;94436.16;;;-4.26;76.92
15568;BME280;7885;42.596;23.044;2023-02-08T03:35:41;94448.38;;;-4.05;76.14
15568;BME280;7885;42.596;23.044;2023-02-08T03:38:14;94384.59;;;-4.25;75.32
15568;BME280;7885;42.596;23.044;2023-02-08T03:40:45;94443.31;;;-3.81;75.50
15568;BME280;7885;42.596;23.044;2023-02-08T03:43:15;94419.66;;;-3.83;74.33
15568;BME280;7885;42.596;23.044;2023-02-08T03:45:46;94434.50;;;-3.67;73.92
15568;BME280;7885;42.596;23.044;2023-02-08T03:48:16;94410.56;;;-3.72;74.06
15568;BME280;7885;42.596;23.044;2023-02-08T03:50:49;94425.47;;;-3.71;73.83
15568;BME280;7885;42.596;23.044;2023-02-08T03:53:20;94411.66;;;-3.73;74.38
15568;BME280;7885;42.596;23.044;2023-02-08T03:55:51;94402.63;;;-3.87;74.39
15568;BME280;7885;42.596;23.044;2023-02-08T03:58:22;94397.84;;;-3.90;74.26
15568;BME280;7885;42.596;23.044;2023-02-08T04:00:54;94395.19;;;-3.95;74.91
15568;BME280;7885;42.596;23.044;2023-02-08T04:03:23;94422.28;;;-3.78;74.76
15568;BME280;7885;42.596;23.044;2023-02-08T04:05:53;94425.47;;;-3.76;74.80
15568;BME280;7885;42.596;23.044;2023-02-08T04:08:20;94405.81;;;-3.85;74.76
15568;BME280;7885;42.596;23.044;2023-02-08T04:10:47;94421.50;;;-3.78;74.61
15568;BME280;7885;42.596;23.044;2023-02-08T04:13:13;94412.75;;;-3.84;74.87
15568;BME280;7885;42.596;23.044;2023-02-08T04:15:40;94377.66;;;-4.06;75.31
15568;BME280;7885;42.596;23.044;2023-02-08T04:18:08;94407.41;;;-3.89;75.30
15568;BME280;7885;42.596;23.044;2023-02-08T04:20:35;94428.16;;;-3.81;74.93
15568;BME280;7885;42.596;23.044;2023-02-08T04:23:03;94371.81;;;-4.23;74.38
15568;BME280;7885;42.596;23.044;2023-02-08T04:25:30;94398.13;;;-4.12;74.08
15568;BME280;7885;42.596;23.044;2023-02-08T04:27:56;94427.88;;;-3.89;74.44
15568;BME280;7885;42.596;23.044;2023-02-08T04:30:24;94431.88;;;-4.02;74.75
15568;BME280;7885;42.596;23.044;2023-02-08T04:32:51;94401.59;;;-4.21;75.37
15568;BME280;7885;42.596;23.044;2023-02-08T04:35:17;94384.03;;;-4.27;75.04
15568;BME280;7885;42.596;23.044;2023-02-08T04:37:44;94444.91;;;-4.05;75.46
15568;BME280;7885;42.596;23.044;2023-02-08T04:40:12;94449.44;;;-4.01;75.41
15568;BME280;7885;42.596;23.044;2023-02-08T04:42:39;94374.22;;;-4.57;75.11
15568;BME280;7885;42.596;23.044;2023-02-08T04:45:06;94347.38;;;-4.76;74.60
15568;BME280;7885;42.596;23.044;2023-02-08T04:47:33;94456.34;;;-4.20;75.08
15568;BME280;7885;42.596;23.044;2023-02-08T04:50:00;94451.28;;;-4.27;74.67
15568;BME280;7885;42.596;23.044;2023-02-08T04:52:27;94459.53;;;-4.28;74.58
15568;BME280;7885;42.596;23.044;2023-02-08T04:54:53;94427.63;;;-4.58;73.35
15568;BME280;7885;42.596;23.044;2023-02-08T04:57:21;94439.81;;;-4.68;73.02
15568;BME280;7885;42.596;23.044;2023-02-08T04:59:48;94471.66;;;-4.78;74.25
15568;BME280;7885;42.596;23.044;2023-02-08T05:02:15;94468.19;;;-4.93;74.18
15568;BME280;7885;42.596;23.044;2023-02-08T05:04:42;94469.91;;;-5.19;74.46
15568;BME280;7885;42.596;23.044;2023-02-08T05:07:08;94476.78;;;-5.28;76.20
15568;BME280;7885;42.596;23.044;2023-02-08T05:09:35;94484.63;;;-5.48;75.98
15568;BME280;7885;42.596;23.044;2023-02-08T05:12:02;94436.38;;;-5.92;76.94
15568;BME280;7885;42.596;23.044;2023-02-08T05:14:30;94491.91;;;-5.71;78.28
15568;BME280;7885;42.596;23.044;2023-02-08T05:16:57;94448.56;;;-5.96;78.89
15568;BME280;7885;42.596;23.044;2023-02-08T05:19:24;94491.91;;;-5.71;79.00
15568;BME280;7885;42.596;23.044;2023-02-08T05:21:51;94477.56;;;-5.75;79.76
15568;BME280;7885;42.596;23.044;2023-02-08T05:24:18;94487.59;;;-5.82;78.82
15568;BME280;7885;42.596;23.044;2023-02-08T05:26:45;94489.50;;;-5.72;79.31
15568;BME280;7885;42.596;23.044;2023-02-08T05:29:11;94434.19;;;-6.05;78.52
15568;BME280;7885;42.596;23.044;2023-02-08T05:31:40;94503.63;;;-5.62;77.01
15568;BME280;7885;42.596;23.044;2023-02-08T05:34:07;94507.94;;;-5.55;76.32
15568;BME280;7885;42.596;23.044;2023-02-08T05:36:33;94489.44;;;-5.82;75.55
15568;BME280;7885;42.596;23.044;2023-02-08T05:39:00;94491.91;;;-5.71;78.53
15568;BME280;7885;42.596;23.044;2023-02-08T05:41:27;94517.97;;;-5.63;77.42
15568;BME280;7885;42.596;23.044;2023-02-08T05:43:54;94510.13;;;-5.84;77.27
15568;BME280;7885;42.596;23.044;2023-02-08T05:46:21;94529.56;;;-5.69;78.45
15568;BME280;7885;42.596;23.044;2023-02-08T05:48:49;94540.00;;;-5.57;79.43
15568;BME280;7885;42.596;23.044;2023-02-08T05:51:16;94526.53;;;-5.50;78.64
15568;BME280;7885;42.596;23.044;2023-02-08T05:53:42;94541.28;;;-5.28;77.16
15568;BME280;7885;42.596;23.044;2023-02-08T05:56:09;94529.34;;;-5.25;76.17
15568;BME280;7885;42.596;23.044;2023-02-08T05:58:36;94533.09;;;-5.16;74.91
15568;BME280;7885;42.596;23.044;2023-02-08T06:01:07;94548.53;;;-5.03;74.10
15568;BME280;7885;42.596;23.044;2023-02-08T06:03:34;94541.72;;;-4.94;74.30
15568;BME280;7885;42.596;23.044;2023-02-08T06:06:03;94536.41;;;-4.94;75.05
15568;BME280;7885;42.596;23.044;2023-02-08T06:08:30;94539.09;;;-4.79;75.53
15568;BME280;7885;42.596;23.044;2023-02-08T06:10:57;94534.38;;;-4.62;76.13
15568;BME280;7885;42.596;23.044;2023-02-08T06:13:24;94542.97;;;-4.39;76.40
15568;BME280;7885;42.596;23.044;2023-02-08T06:15:51;94547.50;;;-4.30;76.05
15568;BME280;7885;42.596;23.044;2023-02-08T06:18:17;94550.97;;;-4.19;75.79
15568;BME280;7885;42.596;23.044;2023-02-08T06:20:44;94530.22;;;-4.17;76.24
15568;BME280;7885;42.596;23.044;2023-02-08T06:23:13;94541.47;;;-3.90;75.37
15568;BME280;7885;42.596;23.044;2023-02-08T06:25:39;94521.50;;;-3.87;75.08
15568;BME280;7885;42.596;23.044;2023-02-08T06:28:06;94558.75;;;-3.42;74.33
15568;BME280;7885;42.596;23.044;2023-02-08T06:30:35;94566.97;;;-3.23;73.42
15568;BME280;7885;42.596;23.044;2023-02-08T06:33:02;94546.19;;;-3.16;72.79
15568;BME280;7885;42.596;23.044;2023-02-08T06:35:29;94553.03;;;-2.85;72.38
15568;BME280;7885;42.596;23.044;2023-02-08T06:37:56;94561.25;;;-2.66;72.18
15568;BME280;7885;42.596;23.044;2023-02-08T06:40:24;94549.25;;;-1.66;71.13
15568;BME280;7885;42.596;23.044;2023-02-08T06:42:51;94553.13;;;-0.01;65.10
15568;BME280;7885;42.596;23.044;2023-02-08T06:45:18;94547.19;;;2.00;59.80
15568;BME280;7885;42.596;23.044;2023-02-08T06:47:44;94536.41;;;3.95;53.65
15568;BME280;7885;42.596;23.044;2023-02-08T06:50:11;94557.56;;;5.77;45.83
15568;BME280;7885;42.596;23.044;2023-02-08T06:52:39;94553.81;;;6.57;42.50
15568;BME280;7885;42.596;23.044;2023-02-08T06:55:06;94545.63;;;8.09;38.85
15568;BME280;7885;42.596;23.044;2023-02-08T06:57:35;94495.63;;;8.98;35.60
15568;BME280;7885;42.596;23.044;2023-02-08T07:00:02;94533.56;;;9.23;34.85
15568;BME280;7885;42.596;23.044;2023-02-08T07:02:29;94535.59;;;10.47;33.26
15568;BME280;7885;42.596;23.044;2023-02-08T07:04:56;94538.81;;;11.84;30.32
15568;BME280;7885;42.596;23.044;2023-02-08T07:07:23;94546.09;;;13.23;28.27
15568;BME280;7885;42.596;23.044;2023-02-08T07:09:50;94541.59;;;12.82;27.08
15568;BME280;7885;42.596;23.044;2023-02-08T07:12:17;94525.00;;;13.94;26.19
15568;BME280;7885;42.596;23.044;2023-02-08T07:14:45;94560.47;;;15.22;24.20
15568;BME280;7885;42.596;23.044;2023-02-08T07:17:12;94555.97;;;15.54;23.93
15568;BME280;7885;42.596;23.044;2023-02-08T07:19:39;94537.44;;;14.76;23.81
15568;BME280;7885;42.596;23.044;2023-02-08T07:22:06;94537.63;;;12.79;25.17
15568;BME280;7885;42.596;23.044;2023-02-08T07:24:34;94524.03;;;11.65;26.58
15568;BME280;7885;42.596;23.044;2023-02-08T07:27:02;94563.28;;;11.03;27.43
15568;BME280;7885;42.596;23.044;2023-02-08T07:29:29;94535.59;;;10.47;28.74
15568;BME280;7885;42.596;23.044;2023-02-08T07:31:58;94543.72;;;10.98;28.17
15568;BME280;7885;42.596;23.044;2023-02-08T07:34:27;94562.50;;;12.71;26.90
15568;BME280;7885;42.596;23.044;2023-02-08T07:36:54;94530.75;;;13.48;25.19
15568;BME280;7885;42.596;23.044;2023-02-08T07:39:21;94573.41;;;14.67;24.29
15568;BME280;7885;42.596;23.044;2023-02-08T07:41:48;94570.31;;;16.27;21.65
15568;BME280;7885;42.596;23.044;2023-02-08T07:44:15;94566.97;;;17.88;20.67
15568;BME280;7885;42.596;23.044;2023-02-08T07:46:42;94563.78;;;19.10;19.29
15568;BME280;7885;42.596;23.044;2023-02-08T07:49:10;94565.25;;;19.96;18.36
15568;BME280;7885;42.596;23.044;2023-02-08T07:51:37;94553.31;;;20.87;17.32
15568;BME280;7885;42.596;23.044;2023-02-08T07:54:03;94561.69;;;21.73;17.04
15568;BME280;7885;42.596;23.044;2023-02-08T07:56:30;94567.06;;;20.40;17.02
15568;BME280;7885;42.596;23.044;2023-02-08T07:58:57;94542.88;;;19.53;17.85
15568;BME280;7885;42.596;23.044;2023-02-08T08:01:23;94578.97;;;20.37;17.38
15568;BME280;7885;42.596;23.044;2023-02-08T08:03:51;94579.06;;;21.34;17.00
15568;BME280;7885;42.596;23.044;2023-02-08T08:06:21;94560.72;;;22.22;16.01
15568;BME280;7885;42.596;23.044;2023-02-08T08:08:48;94517.72;;;22.98;15.54
15568;BME280;7885;42.596;23.044;2023-02-08T08:11:16;94581.16;;;24.22;14.94
15568;BME280;7885;42.596;23.044;2023-02-08T08:13:43;94577.47;;;24.92;14.14
15568;BME280;7885;42.596;23.044;2023-02-08T08:16:10;94564.94;;;25.34;13.70
15568;BME280;7885;42.596;23.044;2023-02-08T08:18:37;94586.38;;;24.87;13.90
15568;BME280;7885;42.596;23.044;2023-02-08T08:21:05;94519.09;;;23.68;13.76
15568;BME280;7885;42.596;23.044;2023-02-08T08:23:33;94563.47;;;22.78;14.35
15568;BME280;7885;42.596;23.044;2023-02-08T08:26:05;94568.66;;;20.38;16.21
15568;BME280;7885;42.596;23.044;2023-02-08T08:28:32;94542.59;;;21.35;15.94
15568;BME280;7885;42.596;23.044;2023-02-08T08:30:59;94539.41;;;22.87;14.94
15568;BME280;7885;42.596;23.044;2023-02-08T08:33:26;94540.97;;;23.37;13.94
15568;BME280;7885;42.596;23.044;2023-02-08T08:35:52;94569.25;;;23.64;14.03
15568;BME280;7885;42.596;23.044;2023-02-08T08:38:19;94562.16;;;23.47;13.74
15568;BME280;7885;42.596;23.044;2023-02-08T08:40:47;94569.25;;;23.64;13.78
15568;BME280;7885;42.596;23.044;2023-02-08T08:43:14;94536.84;;;24.15;13.33
15568;BME280;7885;42.596;23.044;2023-02-08T08:45:41;94543.66;;;24.27;13.07
15568;BME280;7885;42.596;23.044;2023-02-08T08:48:08;94583.59;;;23.30;13.92
15568;BME280;7885;42.596;23.044;2023-02-08T08:50:35;94541.75;;;23.82;13.62
15568;BME280;7885;42.596;23.044;2023-02-08T08:53:03;94577.38;;;24.00;13.24
15568;BME280;7885;42.596;23.044;2023-02-08T08:55:29;94579.25;;;24.19;13.30
15568;BME280;7885;42.596;23.044;2023-02-08T08:57:58;94575.13;;;24.65;13.17
15568;BME280;7885;42.596;23.044;2023-02-08T09:00:24;94572.31;;;25.41;12.49
15568;BME280;7885;42.596;23.044;2023-02-08T09:02:51;94576.28;;;26.21;12.27
15568;BME280;7885;42.596;23.044;2023-02-08T09:05:18;94566.66;;;26.44;11.65
15568;BME280;7885;42.596;23.044;2023-02-08T09:07:45;94585.25;;;24.72;12.08
15568;BME280;7885;42.596;23.044;2023-02-08T09:10:12;94582.63;;;24.10;12.14
15568;BME280;7885;42.596;23.044;2023-02-08T09:12:38;94569.16;;;23.68;12.47
15568;BME280;7885;42.596;23.044;2023-02-08T09:15:07;94592.50;;;23.38;12.48
15568;BME280;7885;42.596;23.044;2023-02-08T09:17:34;94508.78;;;20.54;14.06
15568;BME280;7885;42.596;23.044;2023-02-08T09:20:00;94506.25;;;21.33;13.97
15568;BME280;7885;42.596;23.044;2023-02-08T09:22:28;94567.09;;;21.80;14.00
15568;BME280;7885;42.596;23.044;2023-02-08T09:24:55;94570.34;;;18.86;15.41
15568;BME280;7885;42.596;23.044;2023-02-08T09:27:22;94563.34;;;18.05;16.28
15568;BME280;7885;42.596;23.044;2023-02-08T09:29:49;94580.00;;;18.56;16.05
15568;BME280;7885;42.596;23.044;2023-02-08T09:32:17;94585.25;;;17.04;17.21
15568;BME280;7885;42.596;23.044;2023-02-08T09:34:45;94589.13;;;17.45;17.45
15568;BME280;7885;42.596;23.044;2023-02-08T09:37:12;94553.31;;;18.39;16.70
15568;BME280;7885;42.596;23.044;2023-02-08T09:39:41;94575.25;;;18.60;16.35
15568;BME280;7885;42.596;23.044;2023-02-08T09:42:16;94584.25;;;19.16;16.14
15568;BME280;7885;42.596;23.044;2023-02-08T09:44:56;94541.66;;;19.13;15.61
15568;BME280;7885;42.596;23.044;2023-02-08T09:47:31;94559.31;;;18.86;16.06
15568;BME280;7885;42.596;23.044;2023-02-08T09:50:02;94561.75;;;20.53;15.28
15568;BME280;7885;42.596;23.044;2023-02-08T09:52:34;94584.53;;;21.37;14.96
15568;BME280;7885;42.596;23.044;2023-02-08T09:55:09;94538.63;;;20.90;14.56
15568;BME280;7885;42.596;23.044;2023-02-08T09:57:43;94523.25;;;19.78;15.20
15568;BME280;7885;42.596;23.044;2023-02-08T10:00:15;94589.53;;;19.44;15.73
15568;BME280;7885;42.596;23.044;2023-02-08T10:02:46;94576.44;;;17.83;16.91
15568;BME280;7885;42.596;23.044;2023-02-08T10:05:19;94583.94;;;15.12;19.47
15568;BME280;7885;42.596;23.044;2023-02-08T10:07:46;94582.47;;;13.94;20.58
15568;BME280;7885;42.596;23.044;2023-02-08T10:10:17;94530.59;;;12.52;22.05
15568;BME280;7885;42.596;23.044;2023-02-08T10:12:50;94569.56;;;11.42;23.45
15568;BME280;7885;42.596;23.044;2023-02-08T10:15:30;94576.53;;;10.20;25.19
15568;BME280;7885;42.596;23.044;2023-02-08T10:18:10;94533.16;;;8.69;26.83
15568;BME280;7885;42.596;23.044;2023-02-08T10:20:55;94570.94;;;8.25;27.71
15568;BME280;7885;42.596;23.044;2023-02-08T10:23:47;94576.97;;;7.61;29.39
15568;BME280;7885;42.596;23.044;2023-02-08T10:26:25;94562.91;;;7.15;30.12
15568;BME280;7885;42.596;23.044;2023-02-08T10:29:19;94583.81;;;6.43;31.09
15568;BME280;7885;42.596;23.044;2023-02-08T10:32:05;94573.41;;;5.40;32.73
15568;BME280;7885;42.596;23.044;2023-02-08T10:34:41;94580.81;;;5.60;32.93
15568;BME280;7885;42.596;23.044;2023-02-08T10:37:14;94586.59;;;5.33;33.42
15568;BME280;7885;42.596;23.044;2023-02-08T10:39:42;94589.78;;;5.18;33.54
15568;BME280;7885;42.596;23.044;2023-02-08T10:42:14;94575.81;;;5.33;34.05
15568;BME280;7885;42.596;23.044;2023-02-08T10:44:52;94567.88;;;8.02;30.89
15568;BME280;7885;42.596;23.044;2023-02-08T10:47:31;94576.16;;;11.60;26.04
15568;BME280;7885;42.596;23.044;2023-02-08T10:50:05;94549.19;;;13.51;22.70
15568;BME280;7885;42.596;23.044;2023-02-08T10:52:33;94565.28;;;14.78;21.75
15568;BME280;7885;42.596;23.044;2023-02-08T10:55:00;94475.41;;;15.15;20.00
15568;BME280;7885;42.596;23.044;2023-02-08T10:57:29;94572.94;;;15.85;19.30
15568;BME280;7885;42.596;23.044;2023-02-08T11:00:00;94582.53;;;14.38;20.37
15568;BME280;7885;42.596;23.044;2023-02-08T11:02:31;94581.19;;;13.84;21.05
15568;BME280;7885;42.596;23.044;2023-02-08T11:04:59;94573.84;;;12.99;21.66
15568;BME280;7885;42.596;23.044;2023-02-08T11:07:28;94564.44;;;11.02;22.17
15568;BME280;7885;42.596;23.044;2023-02-08T11:10:13;94576.56;;;10.70;23.39
15568;BME280;7885;42.596;23.044;2023-02-08T11:12:41;94585.84;;;10.85;23.43
15568;BME280;7885;42.596;23.044;2023-02-08T11:15:20;94584.53;;;11.90;22.49
15568;BME280;7885;42.596;23.044;2023-02-08T11:17:52;94542.56;;;12.70;21.97
15568;BME280;7885;42.596;23.044;2023-02-08T11:20:21;94562.81;;;12.92;21.41
15568;BME280;7885;42.596;23.044;2023-02-08T11:22:53;94578.38;;;13.44;21.52
15568;BME280;7885;42.596;23.044;2023-02-08T11:25:34;94564.47;;;13.93;20.70
15568;BME280;7885;42.596;23.044;2023-02-08T11:28:08;94555.47;;;13.89;20.84
15568;BME280;7885;42.596;23.044;2023-02-08T11:30:54;94554.50;;;13.74;20.55
15568;BME280;7885;42.596;23.044;2023-02-08T11:33:21;94530.53;;;12.48;21.56
15568;BME280;7885;42.596;23.044;2023-02-08T11:36:00;94569.53;;;12.72;21.81
15568;BME280;7885;42.596;23.044;2023-02-08T11:38:30;94522.72;;;12.24;22.49
15568;BME280;7885;42.596;23.044;2023-02-08T11:40:58;94563.00;;;12.53;22.31
15568;BME280;7885;42.596;23.044;2023-02-08T11:43:27;94572.59;;;12.21;23.42
15568;BME280;7885;42.596;23.044;2023-02-08T11:45:56;94573.69;;;11.55;24.81
15568;BME280;7885;42.596;23.044;2023-02-08T11:48:29;94581.19;;;11.39;25.05
15568;BME280;7885;42.596;23.044;2023-02-08T11:51:00;94562.03;;;10.47;26.17
15568;BME280;7885;42.596;23.044;2023-02-08T11:53:31;94558.94;;;10.99;26.01
15568;BME280;7885;42.596;23.044;2023-02-08T11:56:04;94538.00;;;10.33;27.21
15568;BME280;7885;42.596;23.044;2023-02-08T12:01:52;94549.03;;;10.25;26.68
15568;BME280;7885;42.596;23.044;2023-02-08T12:04:19;94491.09;;;8.62;28.55
15568;BME280;7885;42.596;23.044;2023-02-08T12:07:02;94559.88;;;8.42;29.32
15568;BME280;7885;42.596;23.044;2023-02-08T12:09:57;94564.47;;;7.48;31.28
15568;BME280;7885;42.596;23.044;2023-02-08T12:12:40;94579.66;;;6.96;32.29
15568;BME280;7885;42.596;23.044;2023-02-08T12:15:18;94528.06;;;6.01;33.57
15568;BME280;7885;42.596;23.044;2023-02-08T12:18:03;94583.38;;;6.03;34.28
15568;BME280;7885;42.596;23.044;2023-02-08T12:20:37;94564.06;;;5.84;34.79
15568;BME280;7885;42.596;23.044;2023-02-08T12:23:17;94581.84;;;5.85;34.62
15568;BME280;7885;42.596;23.044;2023-02-08T12:25:55;94558.47;;;5.51;36.02
15568;BME280;7885;42.596;23.044;2023-02-08T12:28:33;94579.66;;;4.98;37.08
15568;BME280;7885;42.596;23.044;2023-02-08T12:31:06;94577.59;;;4.69;37.44
15568;BME280;7885;42.596;23.044;2023-02-08T12:33:49;94575.34;;;4.37;38.13
15568;BME280;7885;42.596;23.044;2023-02-08T12:36:28;94581.06;;;4.52;37.54
15568;BME280;7885;42.596;23.044;2023-02-08T12:39:07;94553.47;;;4.73;36.82
15568;BME280;7885;42.596;23.044;2023-02-08T12:42:13;94576.44;;;5.94;35.42
15568;BME280;7885;42.596;23.044;2023-02-08T12:44:59;94564.66;;;6.78;34.91
15568;BME280;7885;42.596;23.044;2023-02-08T12:47:39;94574.78;;;7.22;33.79
15568;BME280;7885;42.596;23.044;2023-02-08T12:50:15;94580.41;;;7.17;33.25
15568;BME280;7885;42.596;23.044;2023-02-08T12:52:50;94584.50;;;6.32;34.17
15568;BME280;7885;42.596;23.044;2023-02-08T12:55:24;94587.81;;;6.08;34.35
15568;BME280;7885;42.596;23.044;2023-02-08T12:57:56;94591.22;;;5.96;34.42
15568;BME280;7885;42.596;23.044;2023-02-08T13:00:25;94584.94;;;5.67;35.12
15568;BME280;7885;42.596;23.044;2023-02-08T13:03:00;94597.53;;;5.54;35.54
15568;BME280;7885;42.596;23.044;2023-02-08T13:05:32;94596.16;;;5.05;36.66
15568;BME280;7885;42.596;23.044;2023-02-08T13:08:05;94596.28;;;4.48;37.73
15568;BME280;7885;42.596;23.044;2023-02-08T13:10:36;94586.63;;;3.82;39.41
15568;BME280;7885;42.596;23.044;2023-02-08T13:13:12;94581.56;;;3.58;40.72
15568;BME280;7885;42.596;23.044;2023-02-08T13:15:43;94613.75;;;3.64;40.67
15568;BME280;7885;42.596;23.044;2023-02-08T13:18:14;94605.94;;;3.53;40.31
15568;BME280;7885;42.596;23.044;2023-02-08T13:20:45;94615.03;;;3.35;40.85
15568;BME280;7885;42.596;23.044;2023-02-08T13:23:19;94617.97;;;3.25;41.03
15568;BME280;7885;42.596;23.044;2023-02-08T13:25:50;94622.50;;;3.16;41.01
15568;BME280;7885;42.596;23.044;2023-02-08T13:28:21;94610.81;;;2.98;41.07